メインページ
METAR-TAF:

METAR-TAF

空港 :

ペルー, インディアナ州, アメリカ合衆国

緯度: 40-39N, 経度: 086-09W, 海抜: 247m

現時点の気象観測

当レポートは1時間12分前の23:56(UTC)に作成
南/南西の風 8kt
気温 6°C
湿度 81%
気圧 1015 hPa
視程: 16.1km
晴天

METAR: KGUS 232356Z AUTO 21008KT 10SM CLR 06/03 A2998 RMK AO2 SLP162 T00570029 10126 20057 53007 $

時間: 20:08 (01:08 UTC)

予報

当レポートは6時間8分前の19:00(UTC)に作成
予報は23日の 19時(UTC)から 25日の 01時(UTC)まで有効
南/南西の風 12kt
視程10km以上
高度3500ftの雲は散在している
24日の 05時(UTC)から 24日の 06時(UTC)まで徐々に
南/南西の風 6kt
視程10km以上
高度900ftの雲は散在している
24日の 08時(UTC)から 24日の 09時(UTC)まで徐々に
変向風 6kt
視程: 4800m
高度300ftの曇り
24日の 20時(UTC)から 24日の 21時(UTC)まで徐々に
の風 6kt
視程: 9000m
高度700ftの曇り
小雨

TAF: KGUS 231900Z 2319/2501 20012KT 9999 SCT035 510033 QNH2996INS BECMG 2405/2406 20006KT 9999 SCT009 QNH2995INS BECMG 2408/2409 VRB06KT 4800 BR OVC003 QNH2983INS BECMG 2420/2421 10006KT 9000 -RA OVC007 510603 QNH2973INS TX13/2320Z TN01/2405Z

4,000以上の空港の気象観測と天気予報(METAR報とTAF報)

利用可能な観測所は地図上に黄色い丸と赤い丸で示す。

丸の上にカーソルを重ねると観測所名を参照できる。

次にクリックすると気象観測と天気予報を参照できる。

マップの切り替え:黒色「×」印の緑ボタンをクリックして拡大、「-」印の緑ボタンをクリックして縮小、緑色の三角印をクリックして隣りの地図に切り替え


METAR-TAF: